Time;durP1;ratioP1;P1;durP2;ratioP2;P2;SDS_P1;SDS_P2;PMS_P1;PMS_P2;Temp;Humidity;BMP_temperature;BMP_pressure;BME280_temperature;BME280_humidity;BME280_pressure;Samples;Min_cycle;Max_cycle;Signal;HPM_P1;HPM_P2
2020/12/17 00:02:25;;;;;;;13.00;11.33;;;7.10;99.90;;;;;;5085392;28;20255;-79
2020/12/17 00:04:53;;;;;;;15.40;11.83;;;7.10;99.90;;;;;;5085666;28;20258;-79
2020/12/17 00:07:19;;;;;;;13.60;11.13;;;7.10;99.90;;;;;;5084975;28;20211;-79
2020/12/17 00:09:45;;;;;;;11.83;10.63;;;7.10;99.90;;;;;;5085328;28;20304;-79
2020/12/17 00:12:12;;;;;;;14.30;10.77;;;7.10;99.90;;;;;;5085218;28;20303;-79
2020/12/17 00:14:38;;;;;;;13.33;11.00;;;7.00;99.90;;;;;;5084942;28;20696;-79
2020/12/17 00:17:04;;;;;;;12.73;10.97;;;7.10;99.90;;;;;;5085068;28;20692;-79
2020/12/17 00:19:31;;;;;;;11.63;10.43;;;7.10;99.90;;;;;;5084845;28;20202;-79
2020/12/17 00:21:58;;;;;;;13.00;11.10;;;7.00;99.90;;;;;;5085081;28;20301;-79
2020/12/17 00:24:24;;;;;;;12.40;10.67;;;7.00;99.90;;;;;;5084994;28;20353;-79
2020/12/17 00:26:51;;;;;;;13.27;10.97;;;7.00;99.90;;;;;;5085361;28;20217;-79
2020/12/17 00:29:17;;;;;;;13.83;11.00;;;7.10;99.90;;;;;;5084972;28;20343;-80
2020/12/17 00:31:43;;;;;;;13.33;10.90;;;7.00;99.90;;;;;;5084578;28;20686;-80
2020/12/17 00:34:10;;;;;;;13.13;11.07;;;7.00;99.90;;;;;;5084829;28;20497;-80
2020/12/17 00:36:36;;;;;;;11.73;10.47;;;7.00;99.90;;;;;;5084751;28;20623;-80
2020/12/17 00:39:03;;;;;;;13.03;10.90;;;7.00;99.90;;;;;;5084769;28;20220;-79
2020/12/17 00:41:30;;;;;;;13.90;11.13;;;7.00;99.90;;;;;;5084386;28;20704;-80
2020/12/17 00:43:56;;;;;;;14.30;10.87;;;7.00;99.90;;;;;;5085067;28;20302;-83
2020/12/17 00:46:22;;;;;;;13.43;11.33;;;6.90;99.90;;;;;;5085278;28;20206;-83
2020/12/17 00:48:50;;;;;;;14.03;11.67;;;7.00;99.90;;;;;;5085664;28;20267;-80
2020/12/17 00:51:18;;;;;;;12.20;10.47;;;7.20;99.90;;;;;;5084415;28;20194;-81
2020/12/17 00:53:45;;;;;;;13.83;11.17;;;7.10;99.90;;;;;;5087830;28;20287;-79
2020/12/17 00:56:12;;;;;;;13.27;11.47;;;7.10;99.90;;;;;;5089015;28;20720;-80
2020/12/17 00:58:38;;;;;;;13.67;11.03;;;7.10;99.90;;;;;;5105677;28;20198;-76
2020/12/17 01:01:07;;;;;;;12.53;10.80;;;7.00;99.90;;;;;;5108179;28;20191;-76
2020/12/17 01:03:33;;;;;;;16.03;11.23;;;7.00;99.90;;;;;;5108416;28;20222;-76
2020/12/17 01:06:00;;;;;;;13.97;11.00;;;7.00;99.90;;;;;;5108149;28;20201;-80
2020/12/17 01:08:26;;;;;;;14.23;11.30;;;7.00;99.90;;;;;;5108567;28;20224;-81
2020/12/17 01:10:53;;;;;;;14.13;10.77;;;7.00;99.90;;;;;;5108717;28;20214;-80
2020/12/17 01:13:20;;;;;;;12.23;10.93;;;7.00;99.90;;;;;;5108537;28;20296;-80
2020/12/17 01:15:47;;;;;;;14.07;11.00;;;6.90;99.90;;;;;;5108580;28;20292;-80
2020/12/17 01:18:13;;;;;;;12.53;11.07;;;6.90;99.90;;;;;;5108494;28;20254;-79
2020/12/17 01:20:39;;;;;;;13.10;11.47;;;6.90;99.90;;;;;;5108796;28;20216;-78
2020/12/17 01:23:06;;;;;;;14.97;11.90;;;7.00;99.90;;;;;;5108152;28;20209;-78
2020/12/17 01:25:32;;;;;;;12.53;10.53;;;6.90;99.90;;;;;;5108297;28;20212;-80
2020/12/17 01:27:59;;;;;;;11.70;10.10;;;6.90;99.90;;;;;;5108568;28;20217;-79
2020/12/17 01:30:26;;;;;;;12.93;10.97;;;6.90;99.90;;;;;;5108412;28;20210;-79
2020/12/17 01:32:53;;;;;;;13.30;10.90;;;6.90;99.90;;;;;;5108256;28;20281;-79
2020/12/17 01:35:19;;;;;;;13.13;10.17;;;6.80;99.90;;;;;;5108184;28;20206;-79
2020/12/17 01:37:46;;;;;;;11.87;10.60;;;6.80;99.90;;;;;;5108130;28;20229;-79
2020/12/17 01:40:12;;;;;;;12.70;10.93;;;6.90;99.90;;;;;;5108080;28;20256;-80
2020/12/17 01:42:38;;;;;;;14.00;11.30;;;6.90;99.90;;;;;;5108418;28;20202;-80
2020/12/17 01:45:05;;;;;;;13.63;10.27;;;6.80;99.90;;;;;;5108166;28;20234;-79
2020/12/17 01:47:38;;;;;;;14.33;10.87;;;6.80;99.90;;;;;;5108212;28;20214;-79
2020/12/17 01:50:06;;;;;;;13.57;10.77;;;6.80;99.90;;;;;;5108411;28;20271;-79
2020/12/17 01:52:33;;;;;;;14.33;11.00;;;6.80;99.90;;;;;;5107833;28;20764;-79
2020/12/17 01:55:00;;;;;;;13.73;10.80;;;6.70;99.90;;;;;;5108053;28;20241;-79
2020/12/17 01:57:31;;;;;;;12.67;10.80;;;6.70;99.90;;;;;;5107980;28;20736;-79
2020/12/17 02:00:05;;;;;;;11.97;10.50;;;6.70;99.90;;;;;;5111930;28;20198;-79
2020/12/17 02:02:33;;;;;;;14.33;11.57;;;6.70;99.90;;;;;;5111501;28;20202;-78
2020/12/17 02:05:01;;;;;;;12.93;10.77;;;6.60;99.90;;;;;;5111731;28;20238;-77
2020/12/17 02:07:28;;;;;;;14.40;10.43;;;6.60;99.90;;;;;;5111622;28;20289;-76
2020/12/17 02:09:55;;;;;;;12.87;10.60;;;6.60;99.90;;;;;;5111625;28;20259;-77
2020/12/17 02:12:21;;;;;;;13.50;10.83;;;6.60;99.90;;;;;;5111461;28;20205;-76
2020/12/17 02:14:47;;;;;;;12.93;11.00;;;6.60;99.90;;;;;;5100591;28;20206;-77
2020/12/17 02:17:14;;;;;;;12.33;10.67;;;6.60;99.90;;;;;;5090833;28;20293;-76
2020/12/17 02:19:41;;;;;;;12.83;10.77;;;6.60;99.90;;;;;;5090874;28;20373;-76
2020/12/17 02:22:07;;;;;;;12.70;10.37;;;6.60;99.90;;;;;;5090836;28;20251;-79
2020/12/17 02:24:35;;;;;;;13.60;11.17;;;6.60;99.90;;;;;;5090823;28;20241;-78
2020/12/17 02:27:01;;;;;;;13.97;10.93;;;6.60;99.90;;;;;;5090971;28;20212;-78
2020/12/17 02:29:28;;;;;;;15.57;11.60;;;6.60;99.90;;;;;;5091080;28;20202;-79
2020/12/17 02:31:54;;;;;;;13.57;10.93;;;6.60;99.90;;;;;;5091020;28;20199;-77
2020/12/17 02:34:20;;;;;;;13.17;11.57;;;6.60;99.90;;;;;;5090871;28;20247;-77
2020/12/17 02:36:47;;;;;;;14.17;11.13;;;6.60;99.90;;;;;;5090934;28;20242;-77
2020/12/17 02:39:13;;;;;;;15.73;11.83;;;6.50;99.90;;;;;;5090633;28;20297;-77
2020/12/17 02:41:40;;;;;;;13.50;11.47;;;6.50;99.90;;;;;;5090839;28;20215;-78
2020/12/17 02:44:07;;;;;;;13.23;11.03;;;6.50;99.90;;;;;;5090838;28;20313;-78
2020/12/17 02:46:33;;;;;;;13.97;11.33;;;6.40;99.90;;;;;;5090393;28;20336;-78
2020/12/17 02:49:00;;;;;;;14.03;11.57;;;6.40;99.90;;;;;;5090761;28;20650;-79
2020/12/17 02:51:26;;;;;;;14.43;11.93;;;6.40;99.90;;;;;;5087813;28;20203;-79
2020/12/17 02:53:52;;;;;;;17.13;12.33;;;6.30;99.90;;;;;;5089119;28;20274;-78
2020/12/17 02:56:19;;;;;;;12.30;11.00;;;6.30;99.90;;;;;;5090265;28;20219;-79
2020/12/17 02:58:46;;;;;;;14.40;11.60;;;6.30;99.90;;;;;;5090592;28;20207;-78
2020/12/17 03:01:12;;;;;;;16.03;11.93;;;6.30;99.90;;;;;;5090605;28;20247;-79
2020/12/17 03:03:39;;;;;;;14.63;11.50;;;6.20;99.90;;;;;;5089926;28;20253;-78
2020/12/17 03:06:06;;;;;;;14.83;12.60;;;6.20;99.90;;;;;;5090192;28;20367;-78
2020/12/17 03:08:32;;;;;;;15.63;12.27;;;6.20;99.90;;;;;;5089961;28;20671;-78
2020/12/17 03:10:59;;;;;;;15.40;12.17;;;6.20;99.90;;;;;;5090019;28;20411;-78
2020/12/17 03:13:25;;;;;;;15.17;12.17;;;6.20;99.90;;;;;;5090230;28;20202;-79
2020/12/17 03:15:52;;;;;;;13.57;11.77;;;6.20;99.90;;;;;;5089902;28;20665;-79
2020/12/17 03:18:19;;;;;;;14.40;11.60;;;6.10;99.90;;;;;;5089905;28;20549;-78
2020/12/17 03:20:45;;;;;;;15.07;11.43;;;6.20;99.90;;;;;;5089808;28;20687;-78
2020/12/17 03:23:11;;;;;;;13.87;12.23;;;6.10;99.90;;;;;;5090025;28;20354;-78
2020/12/17 03:25:38;;;;;;;16.87;11.87;;;6.10;99.90;;;;;;5089331;28;20719;-78
2020/12/17 03:28:04;;;;;;;13.10;11.47;;;6.10;99.90;;;;;;5089379;28;20657;-79
2020/12/17 03:30:31;;;;;;;14.47;11.53;;;6.00;99.90;;;;;;5090105;28;20330;-78
2020/12/17 03:32:58;;;;;;;15.97;12.27;;;6.00;99.90;;;;;;5089725;28;20214;-78
2020/12/17 03:35:25;;;;;;;14.50;10.97;;;6.00;99.90;;;;;;5089029;28;20687;-78
2020/12/17 03:37:52;;;;;;;15.40;12.17;;;6.00;99.90;;;;;;5089143;28;20230;-77
2020/12/17 03:40:18;;;;;;;16.73;11.57;;;6.00;99.90;;;;;;5089336;28;20726;-77
2020/12/17 03:42:44;;;;;;;15.10;12.23;;;5.90;99.90;;;;;;5089417;28;20298;-77
2020/12/17 03:45:11;;;;;;;18.53;13.20;;;6.00;99.90;;;;;;5089223;28;20227;-77
2020/12/17 03:47:37;;;;;;;16.53;12.03;;;6.00;99.90;;;;;;5089509;28;20478;-80
2020/12/17 03:50:04;;;;;;;16.13;12.50;;;6.00;99.90;;;;;;5089456;28;20319;-80
2020/12/17 03:52:31;;;;;;;15.23;12.37;;;6.00;99.90;;;;;;5088611;28;20224;-80
2020/12/17 03:54:57;;;;;;;16.83;12.90;;;5.90;99.90;;;;;;5088785;28;20234;-80
2020/12/17 03:57:23;;;;;;;16.77;13.43;;;5.90;99.90;;;;;;5088869;28;20293;-80
2020/12/17 03:59:50;;;;;;;16.00;12.87;;;5.90;99.90;;;;;;5089111;28;20598;-80
2020/12/17 04:02:16;;;;;;;15.87;12.47;;;5.90;99.90;;;;;;5088911;28;20206;-80
2020/12/17 04:04:43;;;;;;;14.70;12.43;;;5.80;99.90;;;;;;5089215;28;20238;-79
2020/12/17 04:07:13;;;;;;;16.63;12.70;;;5.80;99.90;;;;;;5088908;28;20210;-79
2020/12/17 04:09:40;;;;;;;16.10;12.53;;;5.80;99.90;;;;;;5097610;28;20634;-80
2020/12/17 04:12:06;;;;;;;15.00;12.70;;;5.80;99.90;;;;;;5094935;28;20929;-79
2020/12/17 04:14:33;;;;;;;14.63;12.07;;;5.80;99.90;;;;;;5089010;28;20202;-80
2020/12/17 04:16:59;;;;;;;17.23;13.07;;;5.80;99.90;;;;;;5091877;28;20211;-80
2020/12/17 04:19:25;;;;;;;15.93;12.73;;;5.80;99.90;;;;;;5108577;28;20224;-81
2020/12/17 04:21:52;;;;;;;14.77;11.83;;;5.80;99.90;;;;;;5108374;28;20209;-80
2020/12/17 04:24:19;;;;;;;16.20;12.17;;;5.70;99.90;;;;;;5109027;28;20602;-80
2020/12/17 04:26:49;;;;;;;16.57;13.03;;;5.70;99.90;;;;;;5109095;28;20209;-80
2020/12/17 04:29:16;;;;;;;15.90;13.07;;;5.70;99.90;;;;;;5108876;28;20661;-80
2020/12/17 04:31:42;;;;;;;17.33;13.30;;;5.70;99.90;;;;;;5098631;28;20614;-80
2020/12/17 04:34:08;;;;;;;16.83;12.63;;;5.60;99.90;;;;;;5088584;28;20748;-80
2020/12/17 04:36:35;;;;;;;17.17;12.70;;;5.60;99.90;;;;;;5088667;28;20309;-80
2020/12/17 04:39:02;;;;;;;15.23;12.93;;;5.60;99.90;;;;;;5088647;28;20569;-79
2020/12/17 04:41:31;;;;;;;16.93;13.50;;;5.60;99.90;;;;;;5087970;28;20301;-79
2020/12/17 04:43:58;;;;;;;17.27;13.17;;;5.50;99.90;;;;;;5088310;28;20611;-79
2020/12/17 04:46:26;;;;;;;16.77;13.17;;;5.50;99.90;;;;;;5087981;28;20293;-79
2020/12/17 04:48:54;;;;;;;17.23;12.83;;;5.50;99.90;;;;;;5088162;28;20211;-77
2020/12/17 04:51:21;;;;;;;17.33;13.30;;;5.50;99.90;;;;;;5088149;28;20210;-78
2020/12/17 04:53:49;;;;;;;17.40;13.37;;;5.50;99.90;;;;;;5087681;28;20241;-77
2020/12/17 04:56:17;;;;;;;16.60;13.40;;;5.50;99.90;;;;;;5088079;28;20286;-77
2020/12/17 04:58:47;;;;;;;22.33;13.40;;;5.50;99.90;;;;;;5088031;28;20203;-77
2020/12/17 05:01:15;;;;;;;19.10;13.67;;;5.50;99.90;;;;;;5088218;28;20224;-77
2020/12/17 05:03:45;;;;;;;16.47;12.50;;;5.50;99.90;;;;;;5087710;28;20673;-77
2020/12/17 05:06:14;;;;;;;16.90;13.43;;;5.50;99.90;;;;;;5088320;28;20278;-80
2020/12/17 05:08:40;;;;;;;17.23;13.10;;;5.40;99.90;;;;;;5088447;28;20295;-79
2020/12/17 05:11:06;;;;;;;19.00;13.70;;;5.40;99.90;;;;;;5088917;28;20302;-80
2020/12/17 05:13:33;;;;;;;17.47;14.10;;;5.40;99.90;;;;;;5088926;28;20218;-79
2020/12/17 05:16:00;;;;;;;19.17;13.97;;;5.40;99.90;;;;;;5088200;28;20202;-79
2020/12/17 05:18:26;;;;;;;16.87;13.40;;;5.40;99.90;;;;;;5087971;28;20213;-79
2020/12/17 05:20:54;;;;;;;16.40;13.07;;;5.40;99.90;;;;;;5088166;28;20203;-79
2020/12/17 05:23:24;;;;;;;16.70;13.03;;;5.40;99.90;;;;;;5087671;28;20661;-76
2020/12/17 05:25:52;;;;;;;16.60;12.60;;;5.40;99.90;;;;;;5087743;28;20326;-76
2020/12/17 05:28:19;;;;;;;17.70;13.07;;;5.40;99.90;;;;;;5088084;28;20211;-75
2020/12/17 05:30:45;;;;;;;19.03;13.83;;;5.30;99.90;;;;;;5087970;28;20305;-76
2020/12/17 05:33:12;;;;;;;18.57;13.70;;;5.30;99.90;;;;;;5088840;28;20286;-76
2020/12/17 05:35:40;;;;;;;17.70;13.27;;;5.30;99.90;;;;;;5091828;28;20210;-75
2020/12/17 05:38:09;;;;;;;17.57;13.90;;;5.30;99.90;;;;;;5091758;28;20313;-75
2020/12/17 05:40:37;;;;;;;16.70;12.67;;;5.20;99.90;;;;;;5091512;28;20310;-76
2020/12/17 05:43:04;;;;;;;17.60;13.87;;;5.30;99.90;;;;;;5091323;28;20210;-75
2020/12/17 05:45:31;;;;;;;18.17;13.93;;;5.30;99.90;;;;;;5091755;28;20270;-75
2020/12/17 05:48:08;;;;;;;18.00;13.70;;;5.30;99.90;;;;;;5091575;28;20406;-76
2020/12/17 05:50:35;;;;;;;16.20;13.47;;;5.20;99.90;;;;;;5091041;28;20232;-76
2020/12/17 05:53:03;;;;;;;17.40;13.17;;;5.20;99.90;;;;;;5090996;28;20215;-75
2020/12/17 05:55:31;;;;;;;17.33;13.47;;;5.20;99.90;;;;;;5091184;28;20593;-76
2020/12/17 05:57:57;;;;;;;17.70;13.63;;;5.30;99.90;;;;;;5091365;28;20209;-75
2020/12/17 06:00:23;;;;;;;16.93;12.90;;;5.30;99.90;;;;;;5090837;28;20298;-75
2020/12/17 06:02:50;;;;;;;17.53;12.90;;;5.30;99.90;;;;;;5091058;28;20556;-75
2020/12/17 06:05:21;;;;;;;18.30;13.20;;;5.30;99.90;;;;;;5090923;28;20284;-76
2020/12/17 06:07:49;;;;;;;17.03;13.00;;;5.30;99.90;;;;;;5091269;28;20573;-75
2020/12/17 06:10:20;;;;;;;17.97;13.17;;;5.30;99.90;;;;;;5090864;28;20220;-76
2020/12/17 06:12:48;;;;;;;17.73;13.03;;;5.20;99.90;;;;;;5090374;28;20292;-75
2020/12/17 06:15:19;;;;;;;17.60;12.63;;;5.20;99.90;;;;;;5091300;28;20211;-79
2020/12/17 06:17:53;;;;;;;16.13;12.43;;;5.20;99.90;;;;;;5090938;28;20546;-79
2020/12/17 06:20:21;;;;;;;15.93;12.47;;;5.30;99.90;;;;;;5091493;28;20203;-81
2020/12/17 06:22:52;;;;;;;15.80;13.20;;;5.20;99.90;;;;;;5091018;28;20311;-80
2020/12/17 06:25:19;;;;;;;16.80;12.63;;;5.20;99.90;;;;;;5090884;28;20252;-80
2020/12/17 06:27:47;;;;;;;16.53;13.37;;;5.20;99.90;;;;;;5091011;28;20293;-79
2020/12/17 06:30:16;;;;;;;18.10;12.83;;;5.20;99.90;;;;;;5091046;28;20267;-79
2020/12/17 06:32:43;;;;;;;15.53;12.27;;;5.20;99.90;;;;;;5090895;28;20290;-81
2020/12/17 06:35:27;;;;;;;16.73;12.73;;;5.10;99.90;;;;;;5090866;28;20217;-80
2020/12/17 06:37:55;;;;;;;19.20;13.30;;;5.10;99.90;;;;;;5090410;28;20250;-76
2020/12/17 06:40:26;;;;;;;17.53;12.80;;;5.10;99.90;;;;;;5090737;28;20205;-77
2020/12/17 06:42:53;;;;;;;15.00;12.37;;;5.00;99.90;;;;;;5090539;28;20228;-76
2020/12/17 06:45:26;;;;;;;17.43;12.77;;;5.10;99.90;;;;;;5089747;28;20919;-76
2020/12/17 06:47:53;;;;;;;17.53;12.53;;;5.00;99.90;;;;;;5090563;28;20203;-76
2020/12/17 06:50:24;;;;;;;17.30;12.70;;;5.00;99.90;;;;;;5090635;28;20301;-77
2020/12/17 06:53:17;;;;;;;17.10;13.30;;;5.00;99.90;;;;;;5090294;28;20195;-75
2020/12/17 06:55:45;;;;;;;17.77;12.77;;;5.00;99.90;;;;;;5074981;28;20267;-77
2020/12/17 06:58:23;;;;;;;16.03;12.50;;;5.10;99.90;;;;;;5090201;28;20206;-77
2020/12/17 07:00:52;;;;;;;14.90;12.50;;;5.10;99.90;;;;;;5089702;28;20676;-78
2020/12/17 07:03:41;;;;;;;16.97;12.90;;;5.10;99.90;;;;;;5089982;28;20971;-77
2020/12/17 07:06:15;;;;;;;20.03;12.90;;;5.10;99.90;;;;;;5090442;28;20294;-78
2020/12/17 07:08:43;;;;;;;15.23;12.10;;;5.10;99.90;;;;;;5090143;28;20278;-76
2020/12/17 07:11:41;;;;;;;15.20;11.80;;;5.10;99.90;;;;;;5089905;28;20302;-79
2020/12/17 07:14:09;;;;;;;14.57;11.63;;;5.20;99.90;;;;;;5089899;28;20239;-79
2020/12/17 07:16:37;;;;;;;15.57;12.43;;;5.20;99.90;;;;;;5090322;28;20302;-79
2020/12/17 07:19:22;;;;;;;15.00;11.90;;;5.20;99.90;;;;;;5089607;28;20215;-79
2020/12/17 07:21:53;;;;;;;16.23;12.20;;;5.20;99.90;;;;;;5089907;28;20281;-79
2020/12/17 07:24:32;;;;;;;16.33;12.73;;;5.20;99.90;;;;;;5089697;28;20329;-79
2020/12/17 07:27:01;;;;;;;15.83;12.73;;;5.20;99.90;;;;;;5090078;28;20200;-78
2020/12/17 07:29:39;;;;;;;17.10;12.27;;;5.20;99.90;;;;;;5089607;28;20255;-79
2020/12/17 07:32:31;;;;;;;15.63;12.97;;;5.30;99.90;;;;;;5089709;28;20757;-79
2020/12/17 07:34:59;;;;;;;16.23;12.03;;;5.20;99.90;;;;;;5089735;28;20287;-79
2020/12/17 07:37:42;;;;;;;14.83;12.37;;;5.30;99.90;;;;;;5089293;28;20231;-80
2020/12/17 07:40:27;;;;;;;17.00;12.47;;;5.30;99.90;;;;;;5089904;28;20714;-78
2020/12/17 07:43:03;;;;;;;17.07;12.47;;;5.30;99.90;;;;;;5089424;28;20289;-76
2020/12/17 07:45:51;;;;;;;17.47;12.43;;;5.30;99.90;;;;;;5088830;28;20351;-76
2020/12/17 07:48:46;;;;;;;15.87;11.83;;;5.30;99.90;;;;;;5089626;28;20199;-76
2020/12/17 07:51:32;;;;;;;15.33;11.90;;;5.30;99.90;;;;;;5089263;28;20206;-76
2020/12/17 07:54:02;;;;;;;22.93;11.97;;;5.30;99.90;;;;;;5088943;28;20744;-78
2020/12/17 07:56:29;;;;;;;15.60;12.43;;;5.30;99.90;;;;;;5088181;28;21125;-78
2020/12/17 07:58:55;;;;;;;14.20;11.67;;;5.30;99.90;;;;;;5089176;28;20202;-78
2020/12/17 08:01:22;;;;;;;13.90;11.10;;;5.40;99.90;;;;;;5089200;28;20199;-78
2020/12/17 08:03:50;;;;;;;15.60;12.17;;;5.40;99.90;;;;;;5088696;28;20263;-77
2020/12/17 08:06:19;;;;;;;13.27;10.90;;;5.50;99.90;;;;;;5089360;28;20213;-77
2020/12/17 08:08:46;;;;;;;15.80;12.20;;;5.40;99.90;;;;;;5088422;28;20297;-77
2020/12/17 08:11:12;;;;;;;16.17;12.00;;;5.50;99.90;;;;;;5089014;28;20272;-77
2020/12/17 08:13:40;;;;;;;16.77;11.93;;;5.50;99.90;;;;;;5088672;28;20290;-78
2020/12/17 08:16:06;;;;;;;14.00;11.10;;;5.50;99.90;;;;;;5089539;28;20245;-79
2020/12/17 08:18:34;;;;;;;17.80;12.27;;;5.50;99.90;;;;;;5098633;28;20201;-80
2020/12/17 08:21:06;;;;;;;15.97;12.00;;;5.50;99.90;;;;;;5099717;28;20239;-79
2020/12/17 08:23:33;;;;;;;14.73;10.90;;;5.50;99.90;;;;;;5098105;28;20398;-77
2020/12/17 08:26:01;;;;;;;13.03;10.60;;;5.50;99.90;;;;;;5101640;28;20364;-81
2020/12/17 08:28:32;;;;;;;14.10;11.07;;;5.50;99.90;;;;;;5097009;28;20198;-81
2020/12/17 08:31:07;;;;;;;14.07;11.00;;;5.60;99.90;;;;;;5100369;28;20202;-81
2020/12/17 08:33:35;;;;;;;16.23;11.47;;;5.50;99.90;;;;;;5108167;28;20198;-82
2020/12/17 08:36:06;;;;;;;15.23;11.13;;;5.50;99.90;;;;;;5108870;28;20305;-82
2020/12/17 08:38:34;;;;;;;15.53;11.73;;;5.60;99.90;;;;;;5108699;28;20206;-82
2020/12/17 08:41:02;;;;;;;14.47;11.37;;;5.60;99.90;;;;;;5108600;28;20300;-82
2020/12/17 08:43:33;;;;;;;12.50;10.90;;;5.60;99.90;;;;;;5106557;28;20672;-82
2020/12/17 08:46:00;;;;;;;13.70;10.67;;;5.60;99.90;;;;;;5105053;28;20233;-81
2020/12/17 08:48:32;;;;;;;15.23;11.07;;;5.60;99.90;;;;;;5104886;28;20200;-81
2020/12/17 08:50:59;;;;;;;14.73;11.33;;;5.60;99.90;;;;;;5105346;28;20336;-81
2020/12/17 08:53:27;;;;;;;16.67;11.93;;;5.60;99.90;;;;;;5104570;28;20237;-81
2020/12/17 08:56:02;;;;;;;16.03;11.40;;;5.60;99.90;;;;;;5104875;28;20350;-82
2020/12/17 08:58:28;;;;;;;20.30;17.83;;;5.70;99.90;;;;;;5095954;28;20289;-82
2020/12/17 09:00:55;;;;;;;19.60;16.23;;;5.70;99.90;;;;;;5094228;28;20202;-82
2020/12/17 09:03:23;;;;;;;14.53;11.30;;;5.80;99.90;;;;;;5095408;28;20283;-81
2020/12/17 09:06:05;;;;;;;12.83;10.93;;;5.80;99.90;;;;;;5089621;28;20230;-80
2020/12/17 09:08:33;;;;;;;15.83;11.57;;;5.70;99.90;;;;;;5109711;28;20198;-81
2020/12/17 09:11:00;;;;;;;14.60;10.83;;;5.70;99.90;;;;;;5112629;28;20731;-82
2020/12/17 09:13:26;;;;;;;16.23;10.93;;;5.70;99.90;;;;;;5109535;28;20201;-80
2020/12/17 09:16:01;;;;;;;14.27;11.50;;;5.70;99.90;;;;;;5112035;28;20803;-81
2020/12/17 09:18:28;;;;;;;13.90;10.90;;;5.70;99.90;;;;;;5095596;28;20193;-82
2020/12/17 09:21:10;;;;;;;16.17;11.90;;;5.70;99.90;;;;;;5104850;28;20209;-82
2020/12/17 09:23:37;;;;;;;13.00;10.73;;;5.70;99.90;;;;;;5091577;28;20225;-81
2020/12/17 09:26:11;;;;;;;19.80;12.83;;;5.80;99.90;;;;;;5091641;28;20231;-81
2020/12/17 09:28:37;;;;;;;15.77;11.53;;;5.80;99.90;;;;;;5093093;28;20553;-84
2020/12/17 09:31:21;;;;;;;16.63;11.70;;;5.80;99.90;;;;;;5111093;28;20229;-81
2020/12/17 09:33:48;;;;;;;15.30;11.13;;;5.90;99.90;;;;;;5112155;28;20190;-80
2020/12/17 09:36:16;;;;;;;13.73;10.47;;;5.90;99.90;;;;;;5112364;28;20208;-80
2020/12/17 09:38:43;;;;;;;16.70;11.80;;;5.90;99.90;;;;;;5108492;28;20277;-79
2020/12/17 09:41:09;;;;;;;15.50;11.30;;;5.90;99.90;;;;;;5112265;28;20209;-80
2020/12/17 09:43:47;;;;;;;13.67;10.83;;;5.90;99.90;;;;;;5111799;28;20202;-79
2020/12/17 09:46:13;;;;;;;14.57;11.13;;;6.00;99.90;;;;;;5111752;28;20228;-80
2020/12/17 09:48:40;;;;;;;13.07;10.20;;;6.00;99.90;;;;;;5111979;28;20220;-80
2020/12/17 09:51:08;;;;;;;13.33;10.90;;;6.00;99.90;;;;;;5112057;28;20413;-82
2020/12/17 09:53:37;;;;;;;12.67;10.10;;;6.00;99.90;;;;;;5093823;28;20234;-82
2020/12/17 09:56:08;;;;;;;12.97;10.20;;;6.00;99.90;;;;;;5096260;28;20289;-82
2020/12/17 09:58:34;;;;;;;12.83;10.73;;;6.10;99.90;;;;;;5111883;28;20351;-83
2020/12/17 10:01:01;;;;;;;13.33;10.57;;;6.00;99.90;;;;;;5111974;28;20234;-83
2020/12/17 10:03:27;;;;;;;13.00;10.67;;;6.10;99.90;;;;;;5111329;28;20569;-83
2020/12/17 10:05:53;;;;;;;14.37;10.57;;;6.10;99.90;;;;;;5112001;28;20320;-83
2020/12/17 10:08:20;;;;;;;12.73;10.20;;;6.10;99.90;;;;;;5111767;28;20214;-83
2020/12/17 10:10:47;;;;;;;11.70;10.10;;;6.10;99.90;;;;;;5112083;27;20259;-85
2020/12/17 10:13:13;;;;;;;12.30;10.23;;;6.10;99.90;;;;;;5112120;28;20658;-86
2020/12/17 10:15:40;;;;;;;14.70;10.67;;;6.20;99.90;;;;;;5106876;28;20270;-88
2020/12/17 10:18:07;;;;;;;13.37;10.33;;;6.30;99.90;;;;;;5112245;28;20254;-77
2020/12/17 10:20:33;;;;;;;11.70;9.50;;;6.30;99.90;;;;;;5111115;28;20230;-84
2020/12/17 10:22:59;;;;;;;10.87;9.13;;;6.40;99.90;;;;;;5111370;28;20215;-85
2020/12/17 10:25:26;;;;;;;10.93;9.13;;;6.40;99.90;;;;;;5111924;28;20602;-83
2020/12/17 10:27:55;;;;;;;12.37;10.17;;;6.50;99.90;;;;;;5111744;28;20554;-84
2020/12/17 10:30:21;;;;;;;11.90;9.40;;;6.70;99.90;;;;;;5111403;27;20220;-83
2020/12/17 10:32:47;;;;;;;13.20;9.57;;;6.70;99.90;;;;;;5111731;28;20339;-84
2020/12/17 10:35:14;;;;;;;11.13;9.43;;;6.80;99.90;;;;;;5091715;28;20206;-83
2020/12/17 10:37:41;;;;;;;10.43;9.07;;;6.90;99.90;;;;;;5090755;28;20705;-83
2020/12/17 10:40:08;;;;;;;10.90;9.30;;;7.00;99.90;;;;;;5100901;28;20206;-84
2020/12/17 10:42:37;;;;;;;11.50;9.77;;;7.10;99.90;;;;;;5097711;28;20206;-84
2020/12/17 10:45:05;;;;;;;11.53;9.00;;;7.10;99.90;;;;;;5090580;28;20325;-82
2020/12/17 10:47:31;;;;;;;9.83;8.40;;;7.20;99.90;;;;;;5096246;28;20667;-83
2020/12/17 10:49:57;;;;;;;8.60;7.70;;;7.30;99.90;;;;;;5102100;28;20685;-83
2020/12/17 10:52:24;;;;;;;9.20;8.20;;;7.40;99.90;;;;;;5102779;28;20625;-82
2020/12/17 10:54:50;;;;;;;9.73;7.50;;;7.50;99.90;;;;;;5109885;28;20246;-82
2020/12/17 10:57:18;;;;;;;8.47;7.53;;;7.60;99.90;;;;;;5094065;28;20285;-83
2020/12/17 10:59:45;;;;;;;9.03;7.70;;;7.60;99.90;;;;;;5103352;28;20199;-83
2020/12/17 11:02:12;;;;;;;8.87;6.90;;;7.70;99.90;;;;;;5090444;28;20298;-82
2020/12/17 11:04:38;;;;;;;7.80;7.00;;;7.80;99.90;;;;;;5091761;28;20227;-81
2020/12/17 11:07:05;;;;;;;8.30;7.43;;;7.90;99.90;;;;;;5106293;28;20202;-83
2020/12/17 11:09:31;;;;;;;7.50;6.77;;;8.00;99.90;;;;;;5092728;28;20336;-82
2020/12/17 11:11:57;;;;;;;41.37;37.43;;;7.90;99.90;;;;;;5103232;28;20285;-84
2020/12/17 11:14:24;;;;;;;12.27;9.83;;;8.00;99.90;;;;;;5104260;28;20286;-78
2020/12/17 11:16:52;;;;;;;9.50;7.80;;;7.90;99.90;;;;;;5109393;28;20235;-82
2020/12/17 11:19:19;;;;;;;7.10;6.37;;;7.90;99.90;;;;;;5104404;28;20782;-82
2020/12/17 11:21:46;;;;;;;7.07;6.43;;;7.80;99.90;;;;;;5089028;28;20218;-82
2020/12/17 11:24:13;;;;;;;7.37;6.60;;;7.70;99.90;;;;;;5089004;28;20203;-81
2020/12/17 11:26:42;;;;;;;7.13;6.53;;;7.70;99.90;;;;;;5089494;28;20293;-80
2020/12/17 11:29:09;;;;;;;6.67;6.07;;;7.70;99.90;;;;;;5097735;28;20213;-82
2020/12/17 11:31:35;;;;;;;7.13;6.40;;;7.70;99.90;;;;;;5109884;28;20297;-82
2020/12/17 11:34:01;;;;;;;7.60;6.23;;;7.80;99.90;;;;;;5093829;28;20285;-81
2020/12/17 11:36:29;;;;;;;6.63;5.93;;;8.00;99.90;;;;;;5106241;27;20257;-82
2020/12/17 11:38:56;;;;;;;6.60;6.00;;;8.00;99.90;;;;;;5092022;28;20203;-82
2020/12/17 11:41:22;;;;;;;7.00;6.37;;;8.20;99.90;;;;;;5089985;28;20294;-84
2020/12/17 11:43:48;;;;;;;7.17;6.47;;;8.30;99.90;;;;;;5088952;28;20298;-82
2020/12/17 11:46:18;;;;;;;7.57;6.10;;;8.30;99.90;;;;;;5088870;28;20237;-82
2020/12/17 11:48:44;;;;;;;6.93;6.30;;;8.30;99.90;;;;;;5105158;28;20206;-83
2020/12/17 11:51:12;;;;;;;6.90;6.17;;;8.20;99.90;;;;;;5105570;28;20305;-82
2020/12/17 11:53:40;;;;;;;6.57;5.97;;;8.20;99.90;;;;;;5094620;28;20242;-81
2020/12/17 11:56:06;;;;;;;6.90;6.20;;;8.20;99.90;;;;;;5089100;28;20309;-81
2020/12/17 11:58:32;;;;;;;6.87;6.17;;;8.20;99.90;;;;;;5088840;28;20237;-84
2020/12/17 12:00:59;;;;;;;6.93;6.20;;;8.20;99.90;;;;;;5102261;28;21097;-82
2020/12/17 12:03:28;;;;;;;8.57;5.73;;;8.10;99.90;;;;;;5109351;28;20275;-82
2020/12/17 12:05:55;;;;;;;6.20;5.60;;;8.10;99.90;;;;;;5109433;28;21151;-84
2020/12/17 12:08:21;;;;;;;7.67;6.70;;;8.10;99.90;;;;;;5108902;28;20726;-81
2020/12/17 12:10:50;;;;;;;6.97;6.33;;;8.10;99.90;;;;;;5108906;28;20740;-81
2020/12/17 12:13:16;;;;;;;7.20;6.50;;;8.10;99.90;;;;;;5098237;28;20632;-82
2020/12/17 12:15:43;;;;;;;7.37;6.67;;;8.20;99.90;;;;;;5097721;28;20214;-80
2020/12/17 12:18:09;;;;;;;7.93;6.43;;;8.20;99.90;;;;;;5100648;28;20557;-80
2020/12/17 12:20:35;;;;;;;7.33;6.60;;;8.20;99.90;;;;;;5088649;28;20203;-81
2020/12/17 12:23:02;;;;;;;6.67;6.07;;;8.10;99.90;;;;;;5096148;28;20260;-80
2020/12/17 12:25:28;;;;;;;6.93;6.23;;;8.20;99.90;;;;;;5088505;28;20238;-80
2020/12/17 12:27:55;;;;;;;7.47;6.53;;;8.30;99.90;;;;;;5087982;28;21002;-80
2020/12/17 12:30:22;;;;;;;7.07;6.13;;;8.40;99.90;;;;;;5088668;28;20212;-82
2020/12/17 12:32:48;;;;;;;8.87;7.93;;;8.50;99.90;;;;;;5088808;28;20297;-83
2020/12/17 12:35:14;;;;;;;7.33;6.63;;;8.60;99.90;;;;;;5088370;28;20297;-80
2020/12/17 12:37:41;;;;;;;7.10;6.40;;;8.70;99.90;;;;;;5088375;28;20651;-81
2020/12/17 12:40:07;;;;;;;9.13;7.03;;;8.70;99.90;;;;;;5088158;28;20211;-81
2020/12/17 12:42:33;;;;;;;6.80;6.10;;;8.90;99.90;;;;;;5090068;28;20211;-85
2020/12/17 12:45:01;;;;;;;6.97;6.27;;;9.00;99.90;;;;;;5106290;28;20764;-87
2020/12/17 12:47:27;;;;;;;6.87;6.27;;;8.90;99.90;;;;;;5094419;28;20232;-82